createdAt,value
2022-10-06T00:01:30.497Z,1.40
2022-10-06T00:03:52.584Z,1.60
2022-10-06T00:06:17.577Z,1.63
2022-10-06T00:08:41.916Z,1.20
2022-10-06T00:11:04.836Z,1.10
2022-10-06T00:13:28.555Z,1.20
2022-10-06T00:15:50.788Z,1.40
2022-10-06T00:18:12.569Z,1.40
2022-10-06T00:20:34.494Z,1.30
2022-10-06T00:22:59.481Z,1.20
2022-10-06T00:25:25.018Z,1.63
2022-10-06T00:27:51.601Z,1.33
2022-10-06T00:30:21.007Z,1.37
2022-10-06T00:33:01.282Z,1.47
2022-10-06T00:35:26.381Z,1.37
2022-10-06T00:40:11.110Z,1.60
2022-10-06T00:42:33.398Z,1.33
2022-10-06T00:44:58.124Z,1.33
2022-10-06T00:47:24.711Z,1.50
2022-10-06T00:49:47.120Z,1.43
2022-10-06T00:52:18.510Z,1.77
2022-10-06T00:54:41.235Z,1.70
2022-10-06T00:57:06.097Z,1.83
2022-10-06T00:59:28.084Z,1.60
2022-10-06T01:02:13.235Z,1.60
2022-10-06T01:04:41.002Z,1.70
2022-10-06T01:07:04.011Z,2.17
2022-10-06T01:09:29.063Z,1.50
2022-10-06T01:11:56.018Z,2.07
2022-10-06T01:14:21.597Z,2.10
2022-10-06T01:16:51.932Z,1.50
2022-10-06T01:19:40.877Z,1.73
2022-10-06T01:22:08.370Z,1.60
2022-10-06T01:24:30.478Z,2.10
2022-10-06T01:26:53.590Z,2.10
2022-10-06T01:29:16.351Z,1.93
2022-10-06T01:31:38.695Z,2.00
2022-10-06T01:34:00.953Z,2.27
2022-10-06T01:36:23.656Z,1.60
2022-10-06T01:38:47.055Z,2.07
2022-10-06T01:41:08.843Z,1.90
2022-10-06T01:43:30.749Z,1.60
2022-10-06T01:45:58.344Z,2.20
2022-10-06T01:48:20.395Z,1.70
2022-10-06T01:50:43.084Z,1.87
2022-10-06T01:53:04.836Z,1.60
2022-10-06T01:55:27.470Z,1.60
2022-10-06T01:57:52.265Z,2.10
2022-10-06T02:00:14.541Z,1.67
2022-10-06T02:02:37.827Z,1.80
2022-10-06T02:04:59.594Z,2.37
2022-10-06T02:07:21.728Z,1.60
2022-10-06T02:09:43.618Z,1.73
2022-10-06T02:12:05.772Z,1.77
2022-10-06T02:14:27.550Z,1.70
2022-10-06T02:16:49.389Z,2.37
2022-10-06T02:19:11.475Z,1.67
2022-10-06T02:21:33.428Z,1.60
2022-10-06T02:23:55.236Z,2.07
2022-10-06T02:26:18.937Z,2.03
2022-10-06T02:28:41.976Z,1.70
2022-10-06T02:31:09.204Z,1.90
2022-10-06T02:33:33.370Z,1.73
2022-10-06T02:35:56.912Z,2.13
2022-10-06T02:38:19.637Z,1.92
2022-10-06T02:40:42.142Z,2.10
2022-10-06T02:43:03.932Z,1.80
2022-10-06T02:45:26.443Z,1.70
2022-10-06T02:47:48.203Z,2.33
2022-10-06T02:50:10.172Z,1.83
2022-10-06T02:52:35.151Z,2.30
2022-10-06T02:54:56.897Z,2.00
2022-10-06T02:57:18.693Z,2.17
2022-10-06T02:59:40.564Z,2.80
2022-10-06T03:02:02.563Z,2.00
2022-10-06T03:04:24.497Z,2.03
2022-10-06T03:06:46.324Z,2.17
2022-10-06T03:09:12.233Z,2.03
2022-10-06T03:11:42.958Z,1.83
2022-10-06T03:14:09.584Z,1.90
2022-10-06T03:16:42.766Z,1.93
2022-10-06T03:19:11.218Z,2.00
2022-10-06T03:21:36.890Z,2.10
2022-10-06T03:23:59.487Z,2.10
2022-10-06T03:26:27.912Z,2.30
2022-10-06T03:28:50.093Z,2.43
2022-10-06T03:31:13.338Z,2.47
2022-10-06T03:33:35.872Z,2.53
2022-10-06T03:36:07.450Z,1.73
2022-10-06T03:38:34.983Z,2.03
2022-10-06T03:41:05.631Z,2.43
2022-10-06T03:43:27.879Z,2.40
2022-10-06T03:45:57.371Z,2.43
2022-10-06T03:48:19.521Z,1.93
2022-10-06T03:50:41.456Z,2.10
2022-10-06T03:53:03.325Z,2.20
2022-10-06T03:55:26.502Z,2.60
2022-10-06T03:57:48.282Z,2.20
2022-10-06T04:00:11.253Z,2.37
2022-10-06T04:02:34.163Z,2.30
2022-10-06T04:04:56.366Z,2.03
2022-10-06T04:07:19.160Z,2.47
2022-10-06T04:09:41.372Z,2.80
2022-10-06T04:12:04.984Z,2.00
2022-10-06T04:14:29.405Z,2.30
2022-10-06T04:16:51.927Z,2.37
2022-10-06T04:19:18.962Z,2.30
2022-10-06T04:21:46.898Z,2.77
2022-10-06T04:24:13.118Z,2.20
2022-10-06T04:26:42.346Z,2.03
2022-10-06T04:29:05.000Z,1.97
2022-10-06T04:31:32.989Z,2.00
2022-10-06T04:33:58.432Z,2.10
2022-10-06T04:36:27.959Z,2.07
2022-10-06T04:38:54.074Z,1.97
2022-10-06T04:41:19.485Z,2.47
2022-10-06T04:43:45.576Z,2.37
2022-10-06T04:46:30.379Z,2.30
2022-10-06T04:48:53.334Z,2.53
2022-10-06T04:51:18.928Z,2.53
2022-10-06T04:53:44.232Z,2.03
2022-10-06T04:56:12.975Z,2.47
2022-10-06T04:58:42.329Z,2.33
2022-10-06T05:01:21.610Z,2.30
2022-10-06T05:03:45.848Z,2.60
2022-10-06T05:06:39.853Z,2.35
2022-10-06T05:09:15.922Z,2.53
2022-10-06T05:11:49.853Z,2.60
2022-10-06T05:14:14.208Z,2.67
2022-10-06T05:16:39.599Z,3.00
2022-10-06T05:19:02.432Z,2.50
2022-10-06T05:21:29.005Z,2.30
2022-10-06T05:23:52.658Z,2.57
2022-10-06T05:26:24.975Z,2.20
2022-10-06T05:28:47.872Z,3.07
2022-10-06T05:31:15.110Z,2.97
2022-10-06T05:33:38.102Z,2.77
2022-10-06T05:36:12.759Z,2.63
2022-10-06T05:38:34.673Z,2.47
2022-10-06T05:41:14.037Z,3.37
2022-10-06T05:43:36.494Z,2.87
2022-10-06T05:46:02.801Z,3.03
2022-10-06T05:48:25.885Z,2.33
2022-10-06T05:50:49.236Z,2.70
2022-10-06T05:53:11.020Z,3.03
2022-10-06T05:55:32.990Z,2.63
2022-10-06T05:57:55.283Z,2.50
2022-10-06T06:00:17.199Z,2.43
2022-10-06T06:02:42.105Z,3.00
2022-10-06T06:05:06.104Z,3.07
2022-10-06T06:07:27.964Z,3.27
2022-10-06T06:09:49.756Z,3.10
2022-10-06T06:12:11.572Z,3.10
2022-10-06T06:14:55.901Z,2.70
2022-10-06T06:17:20.927Z,2.40
2022-10-06T06:19:42.678Z,3.30
2022-10-06T06:22:04.495Z,3.37
2022-10-06T06:24:28.295Z,3.63
2022-10-06T06:26:50.386Z,2.83
2022-10-06T06:29:12.235Z,2.83
2022-10-06T06:31:43.422Z,2.90
2022-10-06T06:34:08.353Z,3.50
2022-10-06T06:36:43.621Z,3.20
2022-10-06T06:39:12.003Z,3.67
2022-10-06T06:41:39.413Z,3.07
2022-10-06T06:44:28.202Z,3.63
2022-10-06T06:46:57.604Z,2.80
2022-10-06T06:49:20.682Z,3.27
2022-10-06T06:51:50.885Z,3.37
2022-10-06T06:54:15.848Z,3.10
2022-10-06T06:56:39.887Z,3.10
2022-10-06T06:59:11.929Z,3.25
2022-10-06T07:01:44.339Z,3.40
2022-10-06T07:04:07.927Z,3.13
2022-10-06T07:06:32.502Z,3.87
2022-10-06T07:08:59.104Z,3.40
2022-10-06T07:11:30.243Z,3.60
2022-10-06T07:13:55.472Z,3.70
2022-10-06T07:19:22.493Z,3.23
2022-10-06T07:22:25.604Z,3.77
2022-10-06T07:25:07.116Z,3.37
2022-10-06T07:27:34.776Z,3.33
2022-10-06T07:29:57.438Z,3.60
2022-10-06T07:32:21.128Z,3.27
2022-10-06T07:37:10.028Z,3.70
2022-10-06T07:39:32.240Z,4.20
2022-10-06T07:41:54.099Z,3.70
2022-10-06T07:44:15.910Z,3.50
2022-10-06T07:46:39.938Z,4.63
2022-10-06T07:49:10.463Z,3.37
2022-10-06T07:51:32.432Z,3.70
2022-10-06T07:53:54.943Z,3.30
2022-10-06T07:56:27.522Z,3.60
2022-10-06T07:58:51.500Z,3.78
2022-10-06T08:01:17.374Z,3.43
2022-10-06T08:03:41.773Z,2.97
2022-10-06T08:06:04.270Z,4.53
2022-10-06T08:08:26.536Z,3.30
2022-10-06T08:11:00.368Z,4.17
2022-10-06T08:15:50.343Z,3.43
2022-10-06T08:18:27.253Z,3.70
2022-10-06T08:20:54.401Z,3.47
2022-10-06T08:23:16.623Z,3.37
2022-10-06T08:25:45.864Z,3.03
2022-10-06T08:28:07.651Z,2.67
2022-10-06T08:30:29.502Z,3.40
2022-10-06T08:32:51.695Z,3.73
2022-10-06T08:35:14.238Z,2.87
2022-10-06T08:37:36.471Z,3.87
2022-10-06T08:39:58.362Z,3.63
2022-10-06T08:42:29.773Z,3.23
2022-10-06T08:45:02.851Z,3.03
2022-10-06T08:47:34.084Z,3.60
2022-10-06T08:49:57.493Z,3.07
2022-10-06T08:52:59.710Z,3.58
2022-10-06T08:55:54.009Z,3.20
2022-10-06T08:58:30.377Z,2.77
2022-10-06T09:00:56.841Z,3.20
2022-10-06T09:03:24.469Z,2.93
2022-10-06T09:05:46.681Z,3.03
2022-10-06T09:09:05.744Z,4.07
2022-10-06T09:12:12.152Z,3.20
2022-10-06T09:14:49.514Z,3.27
2022-10-06T09:17:21.003Z,3.50
2022-10-06T09:20:00.329Z,3.10
2022-10-06T09:22:23.752Z,3.03
2022-10-06T09:24:50.108Z,3.30
2022-10-06T09:27:29.703Z,3.00
2022-10-06T09:29:53.063Z,2.80
2022-10-06T09:32:18.437Z,3.05
2022-10-06T09:35:00.020Z,2.67
2022-10-06T09:37:23.454Z,3.10
2022-10-06T09:39:50.282Z,2.80
2022-10-06T09:42:23.185Z,2.97
2022-10-06T09:45:00.376Z,2.43
2022-10-06T09:47:36.604Z,2.67
2022-10-06T09:50:27.959Z,3.03
2022-10-06T09:53:00.691Z,2.53
2022-10-06T09:55:28.174Z,2.73
2022-10-06T09:57:53.411Z,2.27
2022-10-06T10:00:41.778Z,2.30
2022-10-06T10:03:08.589Z,2.70
2022-10-06T10:05:36.215Z,2.40
2022-10-06T10:08:22.338Z,2.23
2022-10-06T10:10:44.748Z,2.83
2022-10-06T10:13:26.517Z,2.60
2022-10-06T10:16:00.136Z,2.70
2022-10-06T10:18:28.888Z,2.40
2022-10-06T10:20:57.534Z,2.30
2022-10-06T10:23:32.901Z,2.43
2022-10-06T10:26:30.409Z,2.27
2022-10-06T10:29:33.178Z,2.53
2022-10-06T10:32:11.931Z,1.93
2022-10-06T10:34:48.692Z,2.27
2022-10-06T10:37:35.721Z,2.23
2022-10-06T10:40:10.304Z,2.50
2022-10-06T10:42:56.527Z,2.35
2022-10-06T10:45:32.275Z,2.43
2022-10-06T10:47:57.427Z,2.33
2022-10-06T10:50:53.140Z,2.20
2022-10-06T10:56:26.169Z,1.92
2022-10-06T10:58:53.777Z,2.30
2022-10-06T11:01:37.727Z,2.50
2022-10-06T11:04:00.913Z,2.50
2022-10-06T11:06:59.435Z,2.30
2022-10-06T11:10:14.947Z,2.63
2022-10-06T11:13:26.649Z,2.50
2022-10-06T11:16:29.711Z,2.58
2022-10-06T11:19:48.789Z,2.33
2022-10-06T11:22:46.214Z,2.33
2022-10-06T11:25:35.288Z,2.13
2022-10-06T11:28:52.856Z,2.35
2022-10-06T11:31:41.353Z,2.53
2022-10-06T11:34:06.511Z,2.40
2022-10-06T11:36:49.578Z,2.30
2022-10-06T11:39:51.821Z,2.67
2022-10-06T11:42:37.920Z,2.83
2022-10-06T11:45:13.890Z,2.63
2022-10-06T11:48:18.613Z,2.50
2022-10-06T11:50:42.914Z,2.70
2022-10-06T11:53:06.472Z,2.70
2022-10-06T11:55:30.019Z,2.93
2022-10-06T11:58:42.055Z,2.87
2022-10-06T12:00:57.077Z,2.63
2022-10-06T12:03:33.818Z,2.77
2022-10-06T12:05:56.800Z,2.53
2022-10-06T12:08:39.469Z,2.47
2022-10-06T12:11:01.647Z,2.80
2022-10-06T12:19:55.565Z,2.60
2022-10-06T12:22:40.789Z,2.50
2022-10-06T12:25:14.591Z,2.70
2022-10-06T12:28:36.423Z,2.70
2022-10-06T12:31:18.387Z,2.13
2022-10-06T12:33:43.203Z,2.43
2022-10-06T12:39:01.221Z,2.70
2022-10-06T12:42:06.547Z,3.10
2022-10-06T12:44:51.812Z,2.60
2022-10-06T12:50:30.139Z,2.20
2022-10-06T12:53:19.322Z,2.43
2022-10-06T12:55:51.074Z,2.28
2022-10-06T12:58:34.389Z,2.10
2022-10-06T13:01:07.579Z,2.10
2022-10-06T13:03:30.706Z,2.00
2022-10-06T13:06:01.168Z,2.20
2022-10-06T13:08:28.386Z,1.95
2022-10-06T13:10:50.354Z,2.10
2022-10-06T13:13:24.418Z,2.22
2022-10-06T13:15:46.461Z,1.90
2022-10-06T13:18:08.198Z,2.00
2022-10-06T13:20:49.969Z,1.90
2022-10-06T13:23:39.376Z,2.20
2022-10-06T13:26:06.871Z,2.15
2022-10-06T13:28:34.020Z,2.00
2022-10-06T13:31:18.574Z,2.20
2022-10-06T13:33:43.418Z,1.92
2022-10-06T13:36:07.732Z,1.67
2022-10-06T13:38:34.924Z,1.75
2022-10-06T13:41:22.743Z,1.60
2022-10-06T13:43:51.760Z,1.60
2022-10-06T13:46:19.256Z,1.70
2022-10-06T13:49:10.182Z,2.10
2022-10-06T13:51:33.216Z,1.58
2022-10-06T13:53:57.049Z,1.63
2022-10-06T13:56:38.554Z,1.33
2022-10-06T13:59:37.234Z,1.63
2022-10-06T14:02:22.597Z,1.90
2022-10-06T14:04:45.465Z,1.88
2022-10-06T14:07:13.948Z,1.70
2022-10-06T14:09:35.827Z,1.52
2022-10-06T14:12:13.175Z,1.90
2022-10-06T14:14:35.248Z,1.75
2022-10-06T14:16:58.299Z,1.60
2022-10-06T14:19:35.753Z,2.00
2022-10-06T14:21:57.591Z,1.85
2022-10-06T14:24:19.796Z,1.92
2022-10-06T14:26:43.832Z,1.30
2022-10-06T14:29:05.648Z,1.50
2022-10-06T14:31:28.662Z,1.60
2022-10-06T14:33:52.948Z,1.90
2022-10-06T14:36:21.633Z,2.00
2022-10-06T14:38:43.406Z,1.90
2022-10-06T14:41:06.131Z,1.60
2022-10-06T14:43:27.936Z,1.60
2022-10-06T14:45:49.794Z,1.38
2022-10-06T14:48:15.312Z,1.40
2022-10-06T14:50:37.876Z,1.48
2022-10-06T14:53:00.019Z,1.60
2022-10-06T14:55:21.911Z,1.80
2022-10-06T14:57:43.662Z,1.55
2022-10-06T15:00:09.048Z,1.50
2022-10-06T15:02:31.056Z,1.52
2022-10-06T15:04:52.935Z,1.50
2022-10-06T15:07:33.096Z,1.48
2022-10-06T15:09:55.534Z,1.75
2022-10-06T15:12:17.807Z,1.65
2022-10-06T15:14:40.112Z,1.60
2022-10-06T15:17:02.191Z,1.37
2022-10-06T15:19:24.049Z,1.67
2022-10-06T15:21:45.928Z,1.30
2022-10-06T15:24:13.833Z,1.80
2022-10-06T15:26:54.135Z,1.58
2022-10-06T15:29:16.719Z,1.40
2022-10-06T15:31:42.217Z,1.75
2022-10-06T15:34:08.656Z,1.45
2022-10-06T15:36:33.775Z,1.60
2022-10-06T15:38:58.355Z,1.70
2022-10-06T15:43:59.979Z,1.47
2022-10-06T15:46:36.080Z,1.67
2022-10-06T15:49:08.197Z,1.70
2022-10-06T15:51:42.896Z,1.37
2022-10-06T15:54:05.567Z,1.70
2022-10-06T15:56:34.109Z,1.70
2022-10-06T15:58:55.887Z,1.83
2022-10-06T16:01:27.668Z,1.40
2022-10-06T16:03:50.802Z,1.90
2022-10-06T16:06:16.833Z,1.60
2022-10-06T16:08:38.675Z,1.90
2022-10-06T16:11:01.792Z,1.73
2022-10-06T16:13:23.543Z,1.90
2022-10-06T16:15:53.775Z,2.20
2022-10-06T16:18:15.630Z,2.00
2022-10-06T16:20:37.413Z,1.70
2022-10-06T16:22:59.183Z,1.60
2022-10-06T16:25:20.909Z,2.30
2022-10-06T16:27:42.887Z,1.83
2022-10-06T16:30:05.676Z,1.70
2022-10-06T16:32:27.399Z,1.60
2022-10-06T16:34:50.652Z,2.40
2022-10-06T16:37:12.380Z,2.50
2022-10-06T16:39:34.151Z,1.93
2022-10-06T16:41:56.068Z,1.57
2022-10-06T16:44:19.096Z,1.60
2022-10-06T16:46:41.839Z,2.10
2022-10-06T16:49:05.660Z,2.00
2022-10-06T16:51:34.133Z,1.73
2022-10-06T16:54:05.834Z,1.80
2022-10-06T16:56:37.193Z,1.90
2022-10-06T16:59:03.841Z,2.00
2022-10-06T17:01:28.930Z,1.70
2022-10-06T17:04:15.670Z,2.10
2022-10-06T17:06:39.782Z,1.73
2022-10-06T17:09:01.922Z,1.67
2022-10-06T17:11:25.458Z,2.00
2022-10-06T17:13:49.156Z,2.10
2022-10-06T17:16:15.839Z,2.03
2022-10-06T17:18:38.641Z,1.70
2022-10-06T17:21:20.166Z,1.60
2022-10-06T17:23:56.056Z,1.80
2022-10-06T17:26:22.296Z,1.57
2022-10-06T17:28:51.437Z,1.70
2022-10-06T17:31:16.236Z,1.70
2022-10-06T17:33:41.144Z,1.70
2022-10-06T17:36:16.887Z,1.70
2022-10-06T17:38:43.833Z,1.63
2022-10-06T17:41:09.646Z,1.80
2022-10-06T17:43:31.456Z,1.67
2022-10-06T17:45:53.289Z,1.50
2022-10-06T17:48:15.161Z,1.63
2022-10-06T17:50:36.906Z,1.70
2022-10-06T17:53:01.933Z,1.70
2022-10-06T17:55:23.758Z,1.50
2022-10-06T17:57:45.535Z,1.80
2022-10-06T18:00:09.847Z,1.87
2022-10-06T18:02:34.293Z,2.00
2022-10-06T18:04:56.180Z,2.27
2022-10-06T18:07:18.016Z,2.27
2022-10-06T18:10:00.423Z,2.30
2022-10-06T18:12:22.193Z,2.50
2022-10-06T18:14:44.011Z,2.50
2022-10-06T18:17:05.987Z,3.07
2022-10-06T18:19:36.013Z,3.33
2022-10-06T18:22:01.603Z,3.30
2022-10-06T18:24:27.635Z,3.73
2022-10-06T18:26:52.254Z,3.43
2022-10-06T18:31:39.262Z,3.00
2022-10-06T18:36:43.257Z,2.53
2022-10-06T18:39:05.397Z,3.57
2022-10-06T18:41:28.740Z,3.70
2022-10-06T18:43:51.485Z,3.40
2022-10-06T18:46:34.404Z,2.43
2022-10-06T18:49:03.155Z,2.53
2022-10-06T18:51:31.284Z,2.03
2022-10-06T18:53:56.878Z,1.97
2022-10-06T18:56:19.341Z,2.27
2022-10-06T18:58:41.502Z,2.23
2022-10-06T19:01:07.714Z,2.10
2022-10-06T19:03:31.740Z,2.33
2022-10-06T19:05:53.569Z,2.58
2022-10-06T19:08:15.393Z,2.73
2022-10-06T19:10:57.139Z,3.17
2022-10-06T19:13:21.296Z,4.30
2022-10-06T19:15:50.736Z,3.58
2022-10-06T19:18:12.546Z,3.70
2022-10-06T19:20:34.332Z,3.70
2022-10-06T19:22:56.086Z,3.90
2022-10-06T19:25:19.139Z,3.90
2022-10-06T19:27:41.334Z,3.57
2022-10-06T19:30:04.769Z,4.10
2022-10-06T19:32:33.700Z,3.80
2022-10-06T19:34:58.911Z,3.60
2022-10-06T19:37:20.996Z,4.43
2022-10-06T19:39:46.898Z,4.53
2022-10-06T19:42:35.187Z,3.83
2022-10-06T19:44:57.136Z,4.10
2022-10-06T19:47:18.911Z,4.33
2022-10-06T19:49:42.368Z,4.10
2022-10-06T19:52:08.122Z,3.87
2022-10-06T19:54:30.785Z,4.23
2022-10-06T19:56:52.643Z,4.00
2022-10-06T19:59:23.251Z,3.77
2022-10-06T20:01:45.869Z,3.67
2022-10-06T20:04:08.591Z,3.63
2022-10-06T20:06:35.268Z,3.43
2022-10-06T20:09:06.186Z,3.00
2022-10-06T20:11:28.542Z,2.97
2022-10-06T20:13:51.015Z,2.70
2022-10-06T20:16:19.815Z,2.50
2022-10-06T20:18:42.813Z,2.83
2022-10-06T20:21:04.727Z,2.80
2022-10-06T20:23:27.560Z,3.10
2022-10-06T20:25:49.871Z,2.83
2022-10-06T20:28:13.027Z,2.47
2022-10-06T20:30:36.487Z,2.73
2022-10-06T20:32:58.311Z,2.60
2022-10-06T20:35:20.075Z,3.13
2022-10-06T20:37:42.562Z,2.90
2022-10-06T20:40:23.540Z,2.50
2022-10-06T20:42:49.205Z,2.77
2022-10-06T20:45:10.981Z,2.63
2022-10-06T20:47:33.080Z,2.40
2022-10-06T20:49:57.906Z,2.60
2022-10-06T20:52:19.765Z,2.77
2022-10-06T20:54:41.838Z,2.37
2022-10-06T20:57:06.699Z,2.93
2022-10-06T20:59:29.969Z,2.57
2022-10-06T21:01:52.495Z,2.90
2022-10-06T21:04:17.462Z,2.70
2022-10-06T21:06:39.366Z,3.00
2022-10-06T21:09:02.342Z,2.90
2022-10-06T21:11:25.773Z,3.03
2022-10-06T21:13:52.401Z,3.20
2022-10-06T21:16:14.524Z,3.17
2022-10-06T21:18:36.398Z,3.40
2022-10-06T21:21:03.202Z,2.73
2022-10-06T21:23:24.960Z,3.80
2022-10-06T21:25:46.717Z,3.70
2022-10-06T21:28:08.548Z,3.20
2022-10-06T21:30:33.275Z,2.97
2022-10-06T21:32:55.111Z,3.53
2022-10-06T21:35:16.866Z,3.77
2022-10-06T21:37:38.638Z,3.50
2022-10-06T21:40:02.465Z,3.30
2022-10-06T21:42:24.667Z,3.60
2022-10-06T21:44:46.402Z,3.40
2022-10-06T21:47:08.189Z,3.97
2022-10-06T21:49:30.034Z,3.80
2022-10-06T21:51:55.140Z,3.90
2022-10-06T21:54:18.145Z,4.40
2022-10-06T21:56:41.042Z,4.00
2022-10-06T21:59:04.621Z,3.53
2022-10-06T22:01:30.532Z,4.60
2022-10-06T22:03:52.791Z,4.30
2022-10-06T22:06:19.321Z,3.70
2022-10-06T22:08:42.740Z,3.77
2022-10-06T22:11:12.672Z,3.73
2022-10-06T22:13:34.433Z,4.00
2022-10-06T22:15:56.305Z,4.13
2022-10-06T22:18:18.189Z,4.10
2022-10-06T22:20:39.921Z,3.90
2022-10-06T22:23:04.897Z,4.17
2022-10-06T22:25:26.984Z,3.67
2022-10-06T22:27:48.714Z,3.70
2022-10-06T22:30:11.313Z,4.20
2022-10-06T22:32:33.030Z,3.93
2022-10-06T22:34:54.773Z,4.27
2022-10-06T22:37:16.543Z,4.40
2022-10-06T22:39:38.277Z,4.13
2022-10-06T22:42:00.101Z,4.07
2022-10-06T22:44:21.894Z,4.07
2022-10-06T22:46:43.876Z,4.23
2022-10-06T22:49:06.472Z,4.40
2022-10-06T22:51:28.873Z,4.63
2022-10-06T22:53:59.637Z,4.30
2022-10-06T22:56:21.658Z,4.87
2022-10-06T22:58:43.379Z,4.27
2022-10-06T23:01:13.690Z,4.40
2022-10-06T23:03:35.561Z,4.27
2022-10-06T23:06:00.379Z,5.00
2022-10-06T23:08:22.436Z,4.10
2022-10-06T23:10:44.176Z,4.57
2022-10-06T23:13:05.935Z,4.30
2022-10-06T23:15:28.778Z,4.37
2022-10-06T23:17:50.646Z,4.47
2022-10-06T23:20:12.606Z,4.63
2022-10-06T23:22:34.405Z,4.90
2022-10-06T23:24:56.196Z,4.93
2022-10-06T23:27:17.938Z,3.90
2022-10-06T23:29:39.772Z,4.20
2022-10-06T23:32:01.624Z,4.40
2022-10-06T23:34:23.418Z,4.40
2022-10-06T23:36:45.141Z,4.60
2022-10-06T23:39:06.978Z,3.47
2022-10-06T23:41:28.706Z,4.00
2022-10-06T23:43:50.557Z,3.83
2022-10-06T23:46:12.897Z,4.87
2022-10-06T23:48:34.758Z,4.37
2022-10-06T23:51:13.332Z,5.10
2022-10-06T23:53:36.180Z,3.87
2022-10-06T23:55:58.709Z,4.13
2022-10-06T23:58:22.539Z,4.27
